Time;durP1;ratioP1;P1;durP2;ratioP2;P2;SDS_P1;SDS_P2;PMS_P1;PMS_P2;Temp;Humidity;BMP_temperature;BMP_pressure;BME280_temperature;BME280_humidity;BME280_pressure;Samples;Min_cycle;Max_cycle;Signal;HPM_P1;HPM_P2
2022/05/07 00:01:09;;;;;;;;;;;;;;;6.98;61.42;100207.90;1612534;88;20633;-76
2022/05/07 00:03:44;;;;;;;;;;;;;;;6.86;61.87;100207.40;1617163;88;20156;-76
2022/05/07 00:06:22;;;;;;;;;;;;;;;6.74;62.88;100207.68;1618486;88;21297;-76
2022/05/07 00:08:41;;;;;;;;;;;;;;;6.62;63.09;100210.69;1606465;87;20440;-76
2022/05/07 00:11:05;;;;;;;;;;;;;;;6.51;63.97;100200.05;1608614;88;20205;-76
2022/05/07 00:13:31;;;;;;;;;;;;;;;6.46;64.62;100204.14;1617036;87;20655;-76
2022/05/07 00:18:46;;;;;;;;;;;;;;;6.33;65.39;100201.44;1615315;87;21260;-76
2022/05/07 00:21:19;;;;;;;;;;;;;;;6.25;66.04;100205.52;1611414;86;20183;-76
2022/05/07 00:23:46;;;;;;;;;;;;;;;6.19;66.41;100197.60;1629185;88;20170;-76
2022/05/07 00:26:18;;;;;;;;;;;;;;;6.15;66.61;100201.41;1620579;87;20129;-76
2022/05/07 00:28:46;;;;;;;;;;;;;;;6.11;66.92;100194.86;1633282;86;20146;-76
2022/05/07 00:31:18;;;;;;;;;;;;;;;6.09;67.18;100190.77;1633305;86;21122;-76
2022/05/07 00:33:45;;;;;;;;;;;;;;;6.07;67.58;100190.22;1609492;88;20142;-76
2022/05/07 00:36:11;;;;;;;;;;;;;;;6.06;68.04;100192.67;1653230;86;20102;-76
2022/05/07 00:38:40;;;;;;;;;;;;;;;6.06;67.63;100188.58;1628439;85;20643;-76
2022/05/07 00:41:10;;;;;;;;;;;;;;;6.07;67.80;100191.04;1631007;86;20106;-78
2022/05/07 00:43:41;;;;;;;;;;;;;;;6.08;68.07;100185.05;1626789;86;22174;-77
2022/05/07 00:46:08;;;;;;;;;;;;;;;6.06;68.03;100187.22;1627712;87;20150;-77
2022/05/07 00:48:37;;;;;;;;;;;;;;;6.06;67.97;100185.86;1628583;86;20428;-77
2022/05/07 00:53:53;;;;;;;;;;;;;;;6.16;67.40;100181.78;1630555;86;20448;-77
2022/05/07 00:56:23;;;;;;;;;;;;;;;6.20;67.31;100183.70;1611875;86;20166;-77
2022/05/07 00:58:51;;;;;;;;;;;;;;;6.21;67.60;100183.97;1628083;87;20223;-77
2022/05/07 01:01:18;;;;;;;;;;;;;;;6.20;67.52;100188.33;1626057;87;20481;-77
2022/05/07 01:03:48;;;;;;;;;;;;;;;6.19;67.00;100183.42;1626622;88;20118;-77
2022/05/07 01:06:31;;;;;;;;;;;;;;;6.21;66.75;100194.06;1626832;86;20183;-77
2022/05/07 01:08:54;;;;;;;;;;;;;;;6.25;65.76;100188.34;1628228;86;21555;-77
2022/05/07 01:11:20;;;;;;;;;;;;;;;6.32;65.17;100185.34;1630535;86;20101;-77
2022/05/07 01:13:50;;;;;;;;;;;;;;;6.40;64.85;100191.05;1631379;86;20142;-77
2022/05/07 01:16:18;;;;;;;;;;;;;;;6.40;63.56;100180.68;1629437;86;20150;-77
2022/05/07 01:18:44;;;;;;;;;;;;;;;6.47;63.52;100184.77;1629978;85;20197;-77
2022/05/07 01:21:23;;;;;;;;;;;;;;;6.53;62.21;100185.05;1663681;85;21095;-77
2022/05/07 01:23:49;;;;;;;;;;;;;;;6.63;62.13;100182.31;1646444;84;20121;-76
2022/05/07 01:26:22;;;;;;;;;;;;;;;6.65;61.24;100182.04;1633056;86;20430;-76
2022/05/07 01:29:01;;;;;;;;;;;;;;;6.70;61.27;100180.67;1609819;87;20411;-76
2022/05/07 01:31:33;;;;;;;;;;;;;;;6.76;60.79;100182.85;1633888;86;20236;-78
2022/05/07 01:34:02;;;;;;;;;;;;;;;6.80;59.87;100182.02;1608910;87;20106;-77
2022/05/07 01:36:31;;;;;;;;;;;;;;;6.86;59.78;100179.56;1631495;86;20473;-77
2022/05/07 01:39:01;;;;;;;;;;;;;;;6.90;59.30;100182.01;1654893;85;20129;-76
2022/05/07 01:41:29;;;;;;;;;;;;;;;6.94;59.32;100176.78;1624576;87;40305;-76
2022/05/07 01:44:00;;;;;;;;;;;;;;;6.95;59.18;100175.69;1646328;85;20171;-76
2022/05/07 01:49:17;;;;;;;;;;;;;;;6.89;60.09;100176.28;1692076;83;20135;-77
2022/05/07 01:51:48;;;;;;;;;;;;;;;6.85;60.11;100170.28;1691406;83;20505;-79
2022/05/07 01:54:16;;;;;;;;;;;;;;;6.79;60.32;100171.38;1649817;83;20130;-79
2022/05/07 01:56:43;;;;;;;;;;;;;;;6.72;60.43;100168.94;1639741;86;20102;-78
2022/05/07 01:59:15;;;;;;;;;;;;;;;6.68;60.95;100168.40;1648085;86;20098;-78
2022/05/07 02:01:42;;;;;;;;;;;;;;;6.62;61.49;100167.04;1662079;83;20135;-78
2022/05/07 02:04:10;;;;;;;;;;;;;;;6.55;62.25;100167.86;1698094;82;20439;-77
2022/05/07 02:06:42;;;;;;;;;;;;;;;6.45;63.37;100169.23;1703619;83;20125;-78
2022/05/07 02:09:18;;;;;;;;;;;;;;;6.34;63.87;100173.63;1693004;84;20076;-77
2022/05/07 02:11:44;;;;;;;;;;;;;;;6.21;64.74;100168.16;1697425;83;20111;-78
2022/05/07 02:14:13;;;;;;;;;;;;;;;6.10;64.71;100171.97;1697950;83;20525;-78
2022/05/07 02:16:42;;;;;;;;;;;;;;;6.02;65.04;100173.31;1668986;83;20422;-78
2022/05/07 02:19:08;;;;;;;;;;;;;;;5.94;65.39;100168.39;1698693;82;20122;-78
2022/05/07 02:21:43;;;;;;;;;;;;;;;5.90;66.25;100170.02;1674035;83;20145;-78
2022/05/07 02:24:09;;;;;;;;;;;;;;;5.84;67.14;100165.61;1704652;83;20944;-78
2022/05/07 02:26:38;;;;;;;;;;;;;;;5.78;67.42;100173.50;1669595;85;20104;-77
2022/05/07 02:29:14;;;;;;;;;;;;;;;5.72;67.71;100170.52;1661950;85;20092;-77
2022/05/07 02:32:03;;;;;;;;;;;;;;;5.66;68.05;100168.33;1664423;85;20675;-77
2022/05/07 02:34:18;;;;;;;;;;;;;;;5.61;68.65;100170.48;1670950;85;20099;-77
2022/05/07 02:36:48;;;;;;;;;;;;;;;5.54;68.89;100168.56;1656402;85;21185;-78
2022/05/07 02:39:22;;;;;;;;;;;;;;;5.50;69.31;100173.45;1630544;87;20147;-76
2022/05/07 02:44:38;;;;;;;;;;;;;;;5.43;70.03;100176.95;1646323;87;20102;-78
2022/05/07 02:47:06;;;;;;;;;;;;;;;5.38;70.41;100175.58;1642705;86;20163;-78
2022/05/07 02:49:38;;;;;;;;;;;;;;;5.35;70.68;100181.55;1646636;86;21189;-78
2022/05/07 02:52:04;;;;;;;;;;;;;;;5.33;71.35;100185.08;1650744;85;20116;-78
2022/05/07 02:54:30;;;;;;;;;;;;;;;5.31;71.70;100180.72;1645939;85;20183;-78
2022/05/07 02:57:00;;;;;;;;;;;;;;;5.33;71.83;100190.52;1645714;86;20158;-78
2022/05/07 02:59:29;;;;;;;;;;;;;;;5.33;72.19;100183.72;1628457;85;20126;-77
2022/05/07 03:02:02;;;;;;;;;;;;;;;5.36;72.39;100186.73;1651890;84;21147;-78
2022/05/07 03:04:34;;;;;;;;;;;;;;;5.40;72.97;100186.47;1642325;85;20147;-78
2022/05/07 03:07:10;;;;;;;;;;;;;;;5.43;73.24;100184.58;1678717;83;20183;-78
2022/05/07 03:09:39;;;;;;;;;;;;;;;5.48;72.72;100185.14;1690499;84;20441;-77
2022/05/07 03:12:10;;;;;;;;;;;;;;;5.57;72.51;100187.63;1694099;84;20130;-77
2022/05/07 03:14:41;;;;;;;;;;;;;;;5.64;71.86;100184.94;1669929;85;22173;-77
2022/05/07 03:17:13;;;;;;;;;;;;;;;5.75;72.17;100187.15;1639692;85;20173;-80
2022/05/07 03:19:47;;;;;;;;;;;;;;;5.84;71.03;100190.95;1672424;85;20100;-77
2022/05/07 03:22:17;;;;;;;;;;;;;;;5.94;70.13;100191.02;1644582;85;20831;-78
2022/05/07 03:24:46;;;;;;;;;;;;;;;6.07;69.71;100188.86;1607605;87;20162;-79
2022/05/07 03:27:13;;;;;;;;;;;;;;;6.17;69.18;100191.59;1631675;86;21142;-79
2022/05/07 03:29:43;;;;;;;;;;;;;;;6.27;68.31;100190.25;1630394;87;20092;-78
2022/05/07 03:32:24;;;;;;;;;;;;;;;6.37;67.83;100188.86;1646015;84;20105;-69
2022/05/07 03:35:07;;;;;;;;;;;;;;;6.49;67.20;100192.69;1671167;85;20155;-80
2022/05/07 03:37:27;;;;;;;;;;;;;;;6.60;66.65;100184.77;1658807;85;20463;-76
2022/05/07 03:39:54;;;;;;;;;;;;;;;6.72;66.03;100185.86;1668925;85;21147;-76
2022/05/07 03:42:22;;;;;;;;;;;;;;;6.84;66.24;100186.39;1639370;87;20869;-76
2022/05/07 03:44:50;;;;;;;;;;;;;;;6.93;65.66;100195.08;1625442;86;20248;-73
2022/05/07 03:47:20;;;;;;;;;;;;;;;7.04;65.51;100198.61;1620356;86;20160;-75
2022/05/07 03:49:49;;;;;;;;;;;;;;;7.14;65.02;100197.22;1630550;86;20174;-75
2022/05/07 03:55:07;;;;;;;;;;;;;;;7.38;63.79;100192.50;1651970;85;20175;-77
2022/05/07 03:57:37;;;;;;;;;;;;;;;7.54;62.24;100194.05;1670144;85;20116;-76
2022/05/07 04:00:04;;;;;;;;;;;;;;;7.68;60.56;100201.91;1660854;85;20097;-79
2022/05/07 04:02:38;;;;;;;;;;;;;;;7.83;59.86;100191.45;1657527;85;20203;-75
2022/05/07 04:05:07;;;;;;;;;;;;;;;7.99;59.98;100204.49;1673922;84;21874;-74
2022/05/07 04:07:36;;;;;;;;;;;;;;;8.12;59.55;100203.84;1668610;85;20104;-76
2022/05/07 04:10:06;;;;;;;;;;;;;;;8.23;59.24;100191.73;1668767;85;20180;-80
2022/05/07 04:12:34;;;;;;;;;;;;;;;8.36;58.68;100198.51;1669506;85;20431;-77
2022/05/07 04:15:03;;;;;;;;;;;;;;;8.48;58.43;100197.05;1626489;85;20441;-78
2022/05/07 04:17:33;;;;;;;;;;;;;;;8.62;57.77;100192.28;1628726;86;21871;-76
2022/05/07 04:20:04;;;;;;;;;;;;;;;8.74;57.98;100201.72;1625515;86;20185;-79
2022/05/07 04:22:34;;;;;;;;;;;;;;;8.85;57.75;100198.34;1637663;86;20191;-77
2022/05/07 04:25:01;;;;;;;;;;;;;;;8.95;57.86;100196.87;1636490;85;20164;-80
2022/05/07 04:27:32;;;;;;;;;;;;;;;9.08;58.13;100187.98;1672006;85;20159;-77
2022/05/07 04:30:00;;;;;;;;;;;;;;;9.23;57.55;100193.30;1664641;85;21941;-72
2022/05/07 04:32:27;;;;;;;;;;;;;;;9.39;56.29;100195.83;1665929;84;20441;-73
2022/05/07 04:34:57;;;;;;;;;;;;;;;9.53;55.33;100193.47;1643343;85;20100;-75
2022/05/07 04:37:27;;;;;;;;;;;;;;;9.72;55.43;100192.69;1662766;85;20080;-73
2022/05/07 04:40:00;;;;;;;;;;;;;;;9.90;54.91;100189.13;1655513;85;20115;-74
2022/05/07 04:42:30;;;;;;;;;;;;;;;10.08;52.65;100191.06;1656760;83;21335;-78
2022/05/07 04:44:58;;;;;;;;;;;;;;;10.27;51.90;100192.45;1609883;88;20156;-78
2022/05/07 04:47:28;;;;;;;;;;;;;;;10.44;52.05;100189.96;1642651;86;20134;-79
2022/05/07 04:49:57;;;;;;;;;;;;;;;10.61;50.83;100196.84;1598101;87;20313;-78
2022/05/07 04:52:35;;;;;;;;;;;;;;;10.75;49.55;100186.71;1613430;86;20159;-78
2022/05/07 04:55:03;;;;;;;;;;;;;;;10.86;48.87;100191.73;1611521;86;21291;-78
2022/05/07 04:57:32;;;;;;;;;;;;;;;10.96;48.73;100192.11;1582126;88;20108;-71
2022/05/07 05:00:03;;;;;;;;;;;;;;;11.05;48.41;100192.19;1613325;88;20178;-72
2022/05/07 05:02:34;;;;;;;;;;;;;;;11.13;48.33;100196.43;1592789;88;20149;-72
2022/05/07 05:05:10;;;;;;;;;;;;;;;11.25;48.06;100198.12;1623225;87;20541;-78
2022/05/07 05:07:35;;;;;;;;;;;;;;;11.35;47.83;100190.80;1621029;88;21117;-78
2022/05/07 05:10:08;;;;;;;;;;;;;;;11.46;47.58;100198.54;1620783;86;20148;-78
2022/05/07 05:12:37;;;;;;;;;;;;;;;11.58;47.71;100198.00;1616386;88;20156;-75
2022/05/07 05:15:08;;;;;;;;;;;;;;;11.74;48.13;100191.62;1621842;87;20161;-78
2022/05/07 05:17:46;;;;;;;;;;;;;;;11.92;47.75;100196.77;1588838;87;20202;-71
2022/05/07 05:20:10;;;;;;;;;;;;;;;12.08;46.65;100193.94;1611849;87;21195;-72
2022/05/07 05:22:52;;;;;;;;;;;;;;;12.23;45.79;100200.44;1615677;87;20094;-78
2022/05/07 05:25:20;;;;;;;;;;;;;;;12.38;46.50;100195.14;1617790;87;20153;-77
2022/05/07 05:27:50;;;;;;;;;;;;;;;12.56;45.12;100191.39;1617467;88;20163;-73
2022/05/07 05:30:18;;;;;;;;;;;;;;;12.69;44.94;100194.65;1607821;87;20252;-77
2022/05/07 05:32:48;;;;;;;;;;;;;;;12.83;44.72;100193.17;1559602;88;20154;-79
2022/05/07 05:35:19;;;;;;;;;;;;;;;13.02;45.16;100192.95;1657246;85;20096;-76
2022/05/07 05:37:50;;;;;;;;;;;;;;;13.19;42.97;100191.14;1679007;84;20088;-72
2022/05/07 05:40:24;;;;;;;;;;;;;;;13.29;42.55;100187.82;1658843;84;20894;-74
2022/05/07 05:42:57;;;;;;;;;;;;;;;13.35;42.64;100181.84;1642084;86;20111;-74
2022/05/07 05:45:22;;;;;;;;;;;;;;;13.42;41.83;100183.58;1615167;86;21201;-75
2022/05/07 05:47:52;;;;;;;;;;;;;;;13.45;41.85;100187.64;1649223;85;20127;-72
2022/05/07 05:50:28;;;;;;;;;;;;;;;13.52;42.76;100186.61;1644074;86;20110;-72
2022/05/07 05:52:56;;;;;;;;;;;;;;;13.62;42.53;100185.51;1638682;87;20142;-72
2022/05/07 05:55:27;;;;;;;;;;;;;;;13.71;42.04;100194.05;1642135;86;20245;-72
2022/05/07 05:57:53;;;;;;;;;;;;;;;13.79;42.11;100194.64;1658151;85;21140;-73
2022/05/07 06:00:26;;;;;;;;;;;;;;;13.88;42.04;100192.69;1670525;85;20105;-73
2022/05/07 06:02:52;;;;;;;;;;;;;;;13.98;42.16;100197.66;1673736;84;20184;-77
2022/05/07 06:05:20;;;;;;;;;;;;;;;14.08;41.96;100193.20;1673127;84;20379;-74
2022/05/07 06:07:52;;;;;;;;;;;;;;;14.19;41.88;100195.33;1673187;84;20109;-69
2022/05/07 06:10:24;;;;;;;;;;;;;;;14.31;41.83;100199.39;1670064;83;21290;-73
2022/05/07 06:12:50;;;;;;;;;;;;;;;14.43;41.63;100200.41;1669866;84;20106;-74
2022/05/07 06:15:20;;;;;;;;;;;;;;;14.54;40.63;100203.63;1632832;86;20175;-83
2022/05/07 06:17:56;;;;;;;;;;;;;;;14.59;39.42;100192.97;1642816;86;20214;-68
2022/05/07 06:20:25;;;;;;;;;;;;;;;14.64;40.25;100206.05;1641308;86;20090;-68
2022/05/07 06:23:03;;;;;;;;;;;;;;;14.72;39.82;100197.51;1606279;88;21180;-67
2022/05/07 06:28:22;;;;;;;;;;;;;;;14.90;39.50;100202.44;1678879;84;20099;-67
2022/05/07 06:30:53;;;;;;;;;;;;;;;15.00;39.27;100200.71;1682781;84;20145;-66
2022/05/07 06:33:25;;;;;;;;;;;;;;;15.12;38.18;100203.00;1684670;84;20127;-69
2022/05/07 06:35:54;;;;;;;;;;;;;;;15.20;38.23;100199.40;1700518;83;21133;-66
2022/05/07 06:38:22;;;;;;;;;;;;;;;15.29;37.97;100198.56;1691319;82;20150;-66
2022/05/07 06:40:50;;;;;;;;;;;;;;;15.37;38.17;100202.67;1693774;84;20167;-67
2022/05/07 06:43:20;;;;;;;;;;;;;;;15.50;38.26;100204.98;1700861;83;20974;-67
2022/05/07 06:46:02;;;;;;;;;;;;;;;15.62;38.52;100198.75;1676412;84;20131;-67
2022/05/07 06:48:32;;;;;;;;;;;;;;;15.71;38.47;100203.66;1662553;83;21187;-68
2022/05/07 06:51:01;;;;;;;;;;;;;;;15.79;39.04;100201.42;1677008;84;20096;-68
2022/05/07 06:53:34;;;;;;;;;;;;;;;15.89;38.64;100198.27;1658932;84;20149;-68
2022/05/07 06:56:06;;;;;;;;;;;;;;;15.98;38.72;100198.22;1670833;85;20422;-67
2022/05/07 06:58:34;;;;;;;;;;;;;;;16.11;38.61;100203.50;1668385;82;20138;-67
2022/05/07 07:01:04;;;;;;;;;;;;;;;16.28;38.35;100204.49;1644760;84;21805;-67
2022/05/07 07:03:34;;;;;;;;;;;;;;;16.42;37.51;100201.69;1617007;86;20109;-68
2022/05/07 07:06:02;;;;;;;;;;;;;;;16.53;37.25;100197.93;1639352;86;20115;-67
2022/05/07 07:08:36;;;;;;;;;;;;;;;16.63;36.68;100200.86;1642620;86;20237;-68
2022/05/07 07:11:01;;;;;;;;;;;;;;;16.67;36.25;100204.61;1659658;85;20154;-67
2022/05/07 07:13:28;;;;;;;;;;;;;;;16.73;35.91;100199.09;1661069;85;21160;-68
2022/05/07 07:15:58;;;;;;;;;;;;;;;16.88;36.63;100206.73;1656236;85;20261;-75
2022/05/07 07:18:27;;;;;;;;;;;;;;;17.08;36.34;100201.71;1655055;85;20118;-73
2022/05/07 07:20:55;;;;;;;;;;;;;;;17.26;36.33;100199.55;1661082;85;20161;-73
2022/05/07 07:23:21;;;;;;;;;;;;;;;17.41;35.24;100194.69;1657698;85;20177;-75
2022/05/07 07:25:52;;;;;;;;;;;;;;;17.55;33.97;100192.96;1653725;85;21016;-72
2022/05/07 07:28:18;;;;;;;;;;;;;;;17.63;35.29;100198.98;1648022;84;20174;-73
2022/05/07 07:30:47;;;;;;;;;;;;;;;17.78;34.70;100196.92;1623970;86;20148;-75
2022/05/07 07:33:18;;;;;;;;;;;;;;;17.94;33.00;100198.39;1652280;85;20108;-73
2022/05/07 07:35:45;;;;;;;;;;;;;;;18.07;33.18;100199.18;1637523;85;20178;-72
2022/05/07 07:38:15;;;;;;;;;;;;;;;18.18;33.30;100193.95;1607798;87;21105;-72
2022/05/07 07:40:41;;;;;;;;;;;;;;;18.26;32.79;100195.20;1608365;88;20145;-68
2022/05/07 07:43:07;;;;;;;;;;;;;;;18.38;32.99;100194.36;1626601;88;20455;-68
2022/05/07 07:48:20;;;;;;;;;;;;;;;18.60;32.16;100199.94;1536799;93;20576;-68
2022/05/07 07:50:49;;;;;;;;;;;;;;;18.66;31.97;100193.80;1544238;93;21175;-72
2022/05/07 07:53:18;;;;;;;;;;;;;;;18.81;31.92;100193.62;1565139;86;20138;-72
2022/05/07 07:55:44;;;;;;;;;;;;;;;19.05;31.62;100203.81;1594921;88;20182;-72
2022/05/07 07:58:12;;;;;;;;;;;;;;;19.18;30.20;100200.34;1608225;87;20283;-74
2022/05/07 08:00:42;;;;;;;;;;;;;;;19.24;30.94;100196.95;1626313;87;20182;-69
2022/05/07 08:03:16;;;;;;;;;;;;;;;19.37;30.70;100201.84;1623050;85;21174;-74
2022/05/07 08:05:44;;;;;;;;;;;;;;;19.47;30.40;100201.31;1656275;85;20168;-72
2022/05/07 08:13:45;;;;;;;;;;;;;;;19.59;30.03;100196.27;1630087;85;20178;-70
2022/05/07 08:16:11;;;;;;;;;;;;;;;19.57;28.92;100199.41;1660062;85;21141;-70
2022/05/07 08:18:42;;;;;;;;;;;;;;;19.44;28.85;100200.64;1624201;87;20425;-70
2022/05/07 08:21:10;;;;;;;;;;;;;;;19.35;29.41;100191.07;1642510;85;20232;-68
2022/05/07 08:23:38;;;;;;;;;;;;;;;19.33;30.07;100195.38;1650273;86;20169;-71
2022/05/07 08:26:07;;;;;;;;;;;;;;;19.36;28.24;100200.23;1661250;85;20148;-69
2022/05/07 08:28:34;;;;;;;;;;;;;;;19.38;29.02;100193.13;1630231;85;21658;-72
2022/05/07 08:31:03;;;;;;;;;;;;;;;19.57;29.58;100193.84;1650221;85;20435;-72
2022/05/07 08:33:31;;;;;;;;;;;;;;;19.79;28.28;100192.35;1629354;86;20150;-70
2022/05/07 08:36:00;;;;;;;;;;;;;;;19.96;27.97;100189.17;1651844;85;20137;-70
2022/05/07 08:38:26;;;;;;;;;;;;;;;20.24;27.33;100195.14;1662819;85;20194;-68
2022/05/07 08:40:56;;;;;;;;;;;;;;;20.47;26.82;100185.51;1647302;85;21131;-68
2022/05/07 08:43:26;;;;;;;;;;;;;;;20.65;27.02;100182.50;1632756;86;20318;-68
2022/05/07 08:45:55;;;;;;;;;;;;;;;20.77;26.57;100187.92;1603312;88;20184;-68
2022/05/07 08:48:29;;;;;;;;;;;;;;;20.78;25.51;100192.33;1613440;86;20468;-69
2022/05/07 08:50:56;;;;;;;;;;;;;;;20.74;24.01;100194.23;1602362;87;20157;-68
2022/05/07 08:53:30;;;;;;;;;;;;;;;20.68;25.83;100194.31;1644556;84;22366;-68
2022/05/07 08:55:56;;;;;;;;;;;;;;;20.65;25.43;100185.29;1678158;82;20090;-68
2022/05/07 08:58:25;;;;;;;;;;;;;;;20.72;25.84;100191.02;1630696;87;20190;-69
2022/05/07 09:00:52;;;;;;;;;;;;;;;20.86;24.46;100198.83;1633633;87;20191;-68
2022/05/07 09:03:21;;;;;;;;;;;;;;;20.83;24.03;100189.20;1633288;85;20182;-68
2022/05/07 09:05:49;;;;;;;;;;;;;;;20.81;24.62;100185.98;1689640;84;20221;-69
2022/05/07 09:08:16;;;;;;;;;;;;;;;20.82;24.92;100191.78;1693884;82;20324;-69
2022/05/07 09:10:44;;;;;;;;;;;;;;;20.84;24.95;100191.41;1698854;84;20442;-68
2022/05/07 09:13:13;;;;;;;;;;;;;;;20.77;25.01;100196.30;1689707;84;20143;-68
2022/05/07 09:16:00;;;;;;;;;;;;;;;20.62;22.74;100192.41;1692340;83;20211;-68
2022/05/07 09:18:28;;;;;;;;;;;;;;;20.31;23.44;100185.54;1704908;83;21256;-68
2022/05/07 09:21:20;;;;;;;;;;;;;;;20.07;25.14;100187.44;1696986;84;20161;-68
2022/05/07 09:23:57;;;;;;;;;;;;;;;19.97;25.33;100184.41;1693199;83;20170;-68
2022/05/07 09:26:25;;;;;;;;;;;;;;;19.89;25.48;100175.66;1692758;84;20150;-68
2022/05/07 09:28:53;;;;;;;;;;;;;;;19.79;26.51;100178.42;1694420;84;20185;-68
2022/05/07 09:31:28;;;;;;;;;;;;;;;19.72;25.88;100184.63;1699255;84;20561;-68
2022/05/07 09:35:47;;;;;;;;;;;;;;;19.78;25.60;100180.40;1700349;84;20507;-68
2022/05/07 09:36:28;;;;;;;;;;;;;;;19.89;24.61;100177.06;1698728;84;20129;-68
2022/05/07 09:39:00;;;;;;;;;;;;;;;19.91;24.86;100171.93;1700095;84;20150;-68
2022/05/07 09:41:27;;;;;;;;;;;;;;;20.06;25.29;100171.08;1697244;82;20178;-68
2022/05/07 09:43:57;;;;;;;;;;;;;;;20.23;24.49;100174.82;1691875;84;21169;-68
2022/05/07 09:46:23;;;;;;;;;;;;;;;20.30;24.78;100176.95;1697534;83;20105;-68
2022/05/07 09:48:52;;;;;;;;;;;;;;;20.41;24.36;100169.66;1698245;83;20178;-68
2022/05/07 09:51:20;;;;;;;;;;;;;;;20.48;23.71;100167.60;1693851;83;20141;-68
2022/05/07 09:59:17;;;;;;;;;;;;;;;20.71;23.61;100164.29;1696496;83;20111;-67
2022/05/07 10:02:12;;;;;;;;;;;;;;;20.79;24.27;100163.25;1696467;84;20420;-68
2022/05/07 10:05:01;;;;;;;;;;;;;;;20.97;23.47;100161.58;1662139;85;20184;-67
2022/05/07 10:08:05;;;;;;;;;;;;;;;21.03;25.39;100139.16;1692395;84;20127;-67
2022/05/07 10:10:37;;;;;;;;;;;;;;;21.19;23.32;100141.83;1700168;82;20166;-68
2022/05/07 10:13:08;;;;;;;;;;;;;;;21.32;23.47;100145.27;1697246;84;20146;-68
2022/05/07 10:15:37;;;;;;;;;;;;;;;21.33;23.10;100142.10;1700613;84;20170;-68
2022/05/07 10:18:07;;;;;;;;;;;;;;;21.27;23.58;100148.38;1697960;83;20140;-67
2022/05/07 10:20:39;;;;;;;;;;;;;;;21.38;23.16;100143.74;1695974;84;20432;-67
2022/05/07 10:23:08;;;;;;;;;;;;;;;21.49;23.46;100132.16;1691182;84;21108;-67
2022/05/07 10:25:36;;;;;;;;;;;;;;;21.71;23.83;100125.72;1695496;84;20175;-68
2022/05/07 10:28:13;;;;;;;;;;;;;;;21.90;22.36;100126.78;1700361;83;20085;-69
2022/05/07 10:30:51;;;;;;;;;;;;;;;21.75;22.66;100125.77;1695487;82;20127;-73
2022/05/07 10:33:25;;;;;;;;;;;;;;;21.70;23.67;100126.09;1647899;85;20583;-68
2022/05/07 10:35:57;;;;;;;;;;;;;;;21.85;22.97;100118.73;1675261;83;21120;-72
2022/05/07 10:38:30;;;;;;;;;;;;;;;22.02;22.88;100124.56;1686561;83;20484;-68
2022/05/07 10:41:09;;;;;;;;;;;;;;;22.03;22.33;100131.77;1674646;83;20088;-72
2022/05/07 10:43:42;;;;;;;;;;;;;;;21.87;22.71;100128.94;1672992;83;20122;-74
2022/05/07 10:48:47;;;;;;;;;;;;;;;21.75;23.98;100125.19;1654658;83;21172;-75
2022/05/07 10:51:25;;;;;;;;;;;;;;;22.10;22.58;100121.28;1667544;83;20168;-76
2022/05/07 10:54:03;;;;;;;;;;;;;;;22.42;21.87;100111.09;1674686;84;20150;-73
2022/05/07 10:56:33;;;;;;;;;;;;;;;22.54;21.48;100107.41;1694152;82;20159;-75
2022/05/07 10:59:01;;;;;;;;;;;;;;;22.64;21.63;100103.12;1628644;86;20117;-76
2022/05/07 11:01:31;;;;;;;;;;;;;;;22.70;22.65;100105.78;1650138;85;22802;-70
2022/05/07 11:04:06;;;;;;;;;;;;;;;22.80;21.43;100103.72;1634031;85;20467;-72
2022/05/07 11:06:46;;;;;;;;;;;;;;;22.79;21.84;100098.51;1639595;85;20182;-69
2022/05/07 11:09:17;;;;;;;;;;;;;;;22.94;21.36;100098.86;1646706;86;20146;-67
2022/05/07 11:11:47;;;;;;;;;;;;;;;23.04;22.11;100100.36;1644630;85;20133;-70
2022/05/07 11:14:27;;;;;;;;;;;;;;;23.14;22.41;100095.20;1634183;86;21192;-70
2022/05/07 11:17:00;;;;;;;;;;;;;;;23.35;22.64;100079.98;1655668;85;20595;-69
2022/05/07 11:19:30;;;;;;;;;;;;;;;23.67;22.00;100085.84;1646699;84;20461;-71
2022/05/07 11:21:59;;;;;;;;;;;;;;;23.85;21.29;100083.91;1633866;85;20190;-71
2022/05/07 11:24:30;;;;;;;;;;;;;;;23.84;20.42;100073.09;1642970;86;20441;-71
2022/05/07 11:27:18;;;;;;;;;;;;;;;23.82;20.80;100073.48;1651554;85;21420;-71
2022/05/07 11:29:41;;;;;;;;;;;;;;;23.86;20.76;100074.30;1637917;84;20118;-71
2022/05/07 11:32:13;;;;;;;;;;;;;;;23.45;20.49;100078.45;1669328;83;20103;-70
2022/05/07 11:34:41;;;;;;;;;;;;;;;22.99;20.58;100072.71;1629864;85;20180;-71
2022/05/07 11:37:22;;;;;;;;;;;;;;;22.65;21.70;100068.35;1664430;84;20130;-71
2022/05/07 11:40:05;;;;;;;;;;;;;;;22.34;21.14;100064.85;1648193;86;21195;-71
2022/05/07 11:42:43;;;;;;;;;;;;;;;22.11;21.63;100064.17;1644484;84;20105;-72
2022/05/07 11:45:31;;;;;;;;;;;;;;;22.09;22.06;100058.16;1646260;86;20474;-72
2022/05/07 11:48:23;;;;;;;;;;;;;;;22.03;21.76;100063.28;1657661;86;20263;-71
2022/05/07 11:50:56;;;;;;;;;;;;;;;21.83;21.02;100052.62;1641689;86;20139;-72
2022/05/07 11:53:27;;;;;;;;;;;;;;;21.57;21.59;100055.66;1649661;86;21161;-71
2022/05/07 11:56:09;;;;;;;;;;;;;;;21.33;22.10;100057.52;1664135;83;20193;-71
2022/05/07 11:58:49;;;;;;;;;;;;;;;21.08;22.29;100050.92;1642179;86;20105;-71
2022/05/07 12:01:20;;;;;;;;;;;;;;;20.81;22.40;100053.45;1635888;86;20137;-71
2022/05/07 12:03:50;;;;;;;;;;;;;;;20.53;22.39;100040.41;1635336;83;20167;-71
2022/05/07 12:06:26;;;;;;;;;;;;;;;20.31;23.70;100044.75;1658182;84;20705;-71
2022/05/07 12:08:52;;;;;;;;;;;;;;;20.19;23.46;100047.13;1656391;86;20158;-71
2022/05/07 12:11:20;;;;;;;;;;;;;;;20.14;23.51;100044.64;1652595;85;20125;-71
2022/05/07 12:13:56;;;;;;;;;;;;;;;20.03;23.61;100039.44;1645774;85;20479;-71
2022/05/07 12:19:04;;;;;;;;;;;;;;;19.85;24.71;100043.83;1619122;86;20196;-70
2022/05/07 12:29:59;;;;;;;;;;;;;;;19.91;24.82;100040.98;1627621;86;20098;-70
2022/05/07 12:32:31;;;;;;;;;;;;;;;19.92;24.67;100037.02;1624791;87;21251;-70
2022/05/07 12:34:59;;;;;;;;;;;;;;;19.95;24.79;100028.73;1609565;86;20582;-71
2022/05/07 12:37:30;;;;;;;;;;;;;;;20.00;24.79;100024.84;1605418;87;20099;-70
2022/05/07 12:40:03;;;;;;;;;;;;;;;20.07;25.13;100025.80;1644706;85;20678;-69
2022/05/07 12:42:29;;;;;;;;;;;;;;;20.17;25.45;100020.80;1631886;86;20090;-68
2022/05/07 12:45:01;;;;;;;;;;;;;;;20.25;25.01;100018.34;1609985;87;20491;-69
2022/05/07 12:47:26;;;;;;;;;;;;;;;20.30;25.57;100017.45;1630602;86;20091;-68
2022/05/07 12:49:52;;;;;;;;;;;;;;;20.32;25.06;100012.90;1628041;84;20430;-71
2022/05/07 12:52:22;;;;;;;;;;;;;;;20.30;25.21;100019.44;1574994;89;20142;-68
2022/05/07 12:54:52;;;;;;;;;;;;;;;20.26;25.29;100017.97;1635989;86;20095;-72
2022/05/07 12:57:23;;;;;;;;;;;;;;;20.21;25.19;100018.30;1627502;86;21096;-69
2022/05/07 12:59:55;;;;;;;;;;;;;;;20.16;25.33;100015.81;1608826;86;20162;-70
2022/05/07 13:02:19;;;;;;;;;;;;;;;20.07;25.60;100018.02;1644140;85;20457;-74
2022/05/07 13:04:46;;;;;;;;;;;;;;;19.95;25.39;100041.86;1654251;86;20090;-77
2022/05/07 13:07:20;;;;;;;;;;;;;;;19.70;27.29;100017.65;1644577;86;20114;-68
2022/05/07 13:09:50;;;;;;;;;;;;;;;19.42;27.09;100022.00;1638969;83;20481;-69
2022/05/07 13:12:19;;;;;;;;;;;;;;;19.27;26.29;100024.23;1659212;83;20175;-68
2022/05/07 13:14:47;;;;;;;;;;;;;;;19.23;26.42;100029.72;1629943;86;21203;-70
2022/05/07 13:17:18;;;;;;;;;;;;;;;19.19;26.07;100021.06;1636260;86;20094;-67
2022/05/07 13:19:46;;;;;;;;;;;;;;;19.12;26.52;100021.13;1642104;84;20155;-68
2022/05/07 13:22:17;;;;;;;;;;;;;;;19.14;27.24;100019.37;1690374;84;21191;-67
2022/05/07 13:24:46;;;;;;;;;;;;;;;19.20;27.30;100019.31;1665760;84;20163;-67
2022/05/07 13:27:14;;;;;;;;;;;;;;;19.31;27.96;100016.78;1695242;84;20430;-67
2022/05/07 13:29:42;;;;;;;;;;;;;;;19.44;28.36;100023.84;1692404;83;20148;-69
2022/05/07 13:32:09;;;;;;;;;;;;;;;19.57;27.18;100025.95;1696137;84;20097;-72
2022/05/07 13:34:36;;;;;;;;;;;;;;;19.68;27.12;100019.41;1702624;83;21767;-69
2022/05/07 13:37:05;;;;;;;;;;;;;;;19.77;27.52;100029.75;1697753;84;20182;-70
2022/05/07 13:39:31;;;;;;;;;;;;;;;19.89;27.75;100020.45;1685304;84;20404;-69
2022/05/07 13:42:01;;;;;;;;;;;;;;;20.04;27.20;100020.16;1689868;82;20138;-66